sensor_id;sensor_type;location;lat;lon;timestamp;P1;durP1;ratioP1;P2;durP2;ratioP2
57047;SDS011;42934;54.294;18.598;2023-11-18T00:01:48;19.10;;;10.23;;
57047;SDS011;42934;54.294;18.598;2023-11-18T00:04:17;16.40;;;9.27;;
57047;SDS011;42934;54.294;18.598;2023-11-18T00:06:47;19.98;;;10.02;;
57047;SDS011;42934;54.294;18.598;2023-11-18T00:09:16;16.73;;;8.65;;
57047;SDS011;42934;54.294;18.598;2023-11-18T00:11:47;15.07;;;8.88;;
57047;SDS011;42934;54.294;18.598;2023-11-18T00:14:15;13.85;;;8.82;;
57047;SDS011;42934;54.294;18.598;2023-11-18T00:16:45;16.25;;;8.98;;
57047;SDS011;42934;54.294;18.598;2023-11-18T00:19:16;15.65;;;9.63;;
57047;SDS011;42934;54.294;18.598;2023-11-18T00:21:45;17.67;;;9.43;;
57047;SDS011;42934;54.294;18.598;2023-11-18T00:24:14;15.87;;;8.83;;
57047;SDS011;42934;54.294;18.598;2023-11-18T00:26:44;13.18;;;8.95;;
57047;SDS011;42934;54.294;18.598;2023-11-18T00:29:13;16.23;;;8.32;;
57047;SDS011;42934;54.294;18.598;2023-11-18T00:31:42;14.07;;;8.02;;
57047;SDS011;42934;54.294;18.598;2023-11-18T00:34:12;17.50;;;8.45;;
57047;SDS011;42934;54.294;18.598;2023-11-18T00:36:42;13.32;;;8.07;;
57047;SDS011;42934;54.294;18.598;2023-11-18T00:39:11;14.55;;;8.57;;
57047;SDS011;42934;54.294;18.598;2023-11-18T00:41:40;14.23;;;8.20;;
57047;SDS011;42934;54.294;18.598;2023-11-18T00:44:09;15.75;;;8.05;;
57047;SDS011;42934;54.294;18.598;2023-11-18T00:46:40;12.40;;;8.55;;
57047;SDS011;42934;54.294;18.598;2023-11-18T00:49:09;13.48;;;7.97;;
57047;SDS011;42934;54.294;18.598;2023-11-18T00:51:40;11.18;;;7.60;;
57047;SDS011;42934;54.294;18.598;2023-11-18T00:56:39;16.90;;;9.13;;
57047;SDS011;42934;54.294;18.598;2023-11-18T00:59:08;17.50;;;9.35;;
57047;SDS011;42934;54.294;18.598;2023-11-18T01:01:38;16.67;;;9.02;;
57047;SDS011;42934;54.294;18.598;2023-11-18T01:04:08;16.90;;;10.00;;
57047;SDS011;42934;54.294;18.598;2023-11-18T01:06:37;17.15;;;9.70;;
57047;SDS011;42934;54.294;18.598;2023-11-18T01:09:08;16.73;;;9.35;;
57047;SDS011;42934;54.294;18.598;2023-11-18T01:11:37;17.30;;;9.95;;
57047;SDS011;42934;54.294;18.598;2023-11-18T01:14:26;16.58;;;9.32;;
57047;SDS011;42934;54.294;18.598;2023-11-18T01:17:20;15.43;;;8.77;;
57047;SDS011;42934;54.294;18.598;2023-11-18T01:19:51;17.08;;;9.10;;
57047;SDS011;42934;54.294;18.598;2023-11-18T01:22:20;16.70;;;8.17;;
57047;SDS011;42934;54.294;18.598;2023-11-18T01:24:51;16.27;;;8.50;;
57047;SDS011;42934;54.294;18.598;2023-11-18T01:27:20;14.13;;;8.25;;
57047;SDS011;42934;54.294;18.598;2023-11-18T01:29:49;14.65;;;8.95;;
57047;SDS011;42934;54.294;18.598;2023-11-18T01:32:18;20.70;;;9.05;;
57047;SDS011;42934;54.294;18.598;2023-11-18T01:34:48;19.75;;;9.80;;
57047;SDS011;42934;54.294;18.598;2023-11-18T01:37:18;19.05;;;9.30;;
57047;SDS011;42934;54.294;18.598;2023-11-18T01:39:50;16.13;;;8.63;;
57047;SDS011;42934;54.294;18.598;2023-11-18T01:42:19;13.77;;;8.73;;
57047;SDS011;42934;54.294;18.598;2023-11-18T01:44:48;12.43;;;7.45;;
57047;SDS011;42934;54.294;18.598;2023-11-18T01:47:17;16.35;;;7.93;;
57047;SDS011;42934;54.294;18.598;2023-11-18T01:49:47;13.88;;;7.32;;
57047;SDS011;42934;54.294;18.598;2023-11-18T01:52:16;12.85;;;7.70;;
57047;SDS011;42934;54.294;18.598;2023-11-18T01:54:45;13.73;;;7.93;;
57047;SDS011;42934;54.294;18.598;2023-11-18T01:57:18;12.00;;;7.13;;
57047;SDS011;42934;54.294;18.598;2023-11-18T01:59:47;13.10;;;7.72;;
57047;SDS011;42934;54.294;18.598;2023-11-18T02:02:16;13.82;;;7.97;;
57047;SDS011;42934;54.294;18.598;2023-11-18T02:04:48;11.50;;;7.07;;
57047;SDS011;42934;54.294;18.598;2023-11-18T02:07:17;10.93;;;6.97;;
57047;SDS011;42934;54.294;18.598;2023-11-18T02:09:48;13.93;;;7.32;;
57047;SDS011;42934;54.294;18.598;2023-11-18T02:12:21;9.60;;;6.03;;
57047;SDS011;42934;54.294;18.598;2023-11-18T02:14:55;9.75;;;6.35;;
57047;SDS011;42934;54.294;18.598;2023-11-18T02:17:28;10.55;;;5.85;;
57047;SDS011;42934;54.294;18.598;2023-11-18T02:19:58;11.35;;;5.63;;
57047;SDS011;42934;54.294;18.598;2023-11-18T02:22:32;10.48;;;5.93;;
57047;SDS011;42934;54.294;18.598;2023-11-18T02:25:02;10.10;;;6.47;;
57047;SDS011;42934;54.294;18.598;2023-11-18T02:27:38;10.43;;;6.47;;
57047;SDS011;42934;54.294;18.598;2023-11-18T02:30:08;9.88;;;5.90;;
57047;SDS011;42934;54.294;18.598;2023-11-18T02:32:39;10.43;;;5.90;;
57047;SDS011;42934;54.294;18.598;2023-11-18T02:35:18;7.78;;;5.43;;
57047;SDS011;42934;54.294;18.598;2023-11-18T02:37:52;10.50;;;5.85;;
57047;SDS011;42934;54.294;18.598;2023-11-18T02:40:26;9.50;;;5.50;;
57047;SDS011;42934;54.294;18.598;2023-11-18T02:43:01;8.98;;;5.85;;
57047;SDS011;42934;54.294;18.598;2023-11-18T02:45:33;8.55;;;5.38;;
57047;SDS011;42934;54.294;18.598;2023-11-18T02:48:04;10.00;;;5.82;;
57047;SDS011;42934;54.294;18.598;2023-11-18T02:50:35;8.52;;;5.15;;
57047;SDS011;42934;54.294;18.598;2023-11-18T02:53:04;7.35;;;5.03;;
57047;SDS011;42934;54.294;18.598;2023-11-18T02:55:36;7.40;;;5.22;;
57047;SDS011;42934;54.294;18.598;2023-11-18T02:58:09;7.75;;;5.38;;
57047;SDS011;42934;54.294;18.598;2023-11-18T03:00:38;7.85;;;5.10;;
57047;SDS011;42934;54.294;18.598;2023-11-18T03:03:07;7.50;;;5.00;;
57047;SDS011;42934;54.294;18.598;2023-11-18T03:05:37;8.57;;;5.47;;
57047;SDS011;42934;54.294;18.598;2023-11-18T03:08:06;8.80;;;5.87;;
57047;SDS011;42934;54.294;18.598;2023-11-18T03:10:35;8.20;;;5.43;;
57047;SDS011;42934;54.294;18.598;2023-11-18T03:13:04;6.75;;;4.80;;
57047;SDS011;42934;54.294;18.598;2023-11-18T03:15:36;10.32;;;5.63;;
57047;SDS011;42934;54.294;18.598;2023-11-18T03:18:05;9.15;;;5.20;;
57047;SDS011;42934;54.294;18.598;2023-11-18T03:20:34;9.37;;;5.40;;
57047;SDS011;42934;54.294;18.598;2023-11-18T03:23:03;8.02;;;5.20;;
57047;SDS011;42934;54.294;18.598;2023-11-18T03:25:35;8.10;;;5.57;;
57047;SDS011;42934;54.294;18.598;2023-11-18T03:28:05;9.75;;;4.90;;
57047;SDS011;42934;54.294;18.598;2023-11-18T03:30:36;7.93;;;5.43;;
57047;SDS011;42934;54.294;18.598;2023-11-18T03:33:05;8.90;;;5.60;;
57047;SDS011;42934;54.294;18.598;2023-11-18T03:35:38;9.98;;;5.18;;
57047;SDS011;42934;54.294;18.598;2023-11-18T03:38:07;8.02;;;5.50;;
57047;SDS011;42934;54.294;18.598;2023-11-18T03:40:36;8.37;;;5.77;;
57047;SDS011;42934;54.294;18.598;2023-11-18T03:43:05;9.00;;;6.00;;
57047;SDS011;42934;54.294;18.598;2023-11-18T03:45:36;9.27;;;5.53;;
57047;SDS011;42934;54.294;18.598;2023-11-18T03:48:07;8.50;;;5.80;;
57047;SDS011;42934;54.294;18.598;2023-11-18T03:50:41;9.93;;;6.32;;
57047;SDS011;42934;54.294;18.598;2023-11-18T03:53:10;11.23;;;6.18;;
57047;SDS011;42934;54.294;18.598;2023-11-18T03:55:40;9.23;;;6.10;;
57047;SDS011;42934;54.294;18.598;2023-11-18T03:58:09;10.10;;;5.60;;
57047;SDS011;42934;54.294;18.598;2023-11-18T04:00:40;10.33;;;5.87;;
57047;SDS011;42934;54.294;18.598;2023-11-18T04:05:39;10.35;;;5.97;;
57047;SDS011;42934;54.294;18.598;2023-11-18T04:08:08;8.73;;;5.50;;
57047;SDS011;42934;54.294;18.598;2023-11-18T04:10:39;9.75;;;5.97;;
57047;SDS011;42934;54.294;18.598;2023-11-18T04:13:08;8.93;;;5.60;;
57047;SDS011;42934;54.294;18.598;2023-11-18T04:15:37;10.07;;;6.03;;
57047;SDS011;42934;54.294;18.598;2023-11-18T04:18:07;9.52;;;6.10;;
57047;SDS011;42934;54.294;18.598;2023-11-18T04:20:37;12.77;;;6.77;;
57047;SDS011;42934;54.294;18.598;2023-11-18T04:23:06;10.18;;;6.38;;
57047;SDS011;42934;54.294;18.598;2023-11-18T04:25:36;11.40;;;6.85;;
57047;SDS011;42934;54.294;18.598;2023-11-18T04:28:05;9.15;;;6.05;;
57047;SDS011;42934;54.294;18.598;2023-11-18T04:30:34;10.20;;;6.22;;
57047;SDS011;42934;54.294;18.598;2023-11-18T04:33:05;10.60;;;6.63;;
57047;SDS011;42934;54.294;18.598;2023-11-18T04:35:34;11.35;;;6.85;;
57047;SDS011;42934;54.294;18.598;2023-11-18T04:38:03;13.05;;;7.60;;
57047;SDS011;42934;54.294;18.598;2023-11-18T04:40:32;10.57;;;6.90;;
57047;SDS011;42934;54.294;18.598;2023-11-18T04:43:02;12.85;;;7.65;;
57047;SDS011;42934;54.294;18.598;2023-11-18T04:45:31;13.52;;;7.15;;
57047;SDS011;42934;54.294;18.598;2023-11-18T04:48:00;11.75;;;6.82;;
57047;SDS011;42934;54.294;18.598;2023-11-18T04:50:31;12.30;;;7.15;;
57047;SDS011;42934;54.294;18.598;2023-11-18T04:53:01;10.70;;;6.60;;
57047;SDS011;42934;54.294;18.598;2023-11-18T04:55:31;11.80;;;7.10;;
57047;SDS011;42934;54.294;18.598;2023-11-18T04:58:00;11.38;;;6.75;;
57047;SDS011;42934;54.294;18.598;2023-11-18T05:00:32;11.48;;;6.43;;
57047;SDS011;42934;54.294;18.598;2023-11-18T05:03:02;9.85;;;6.70;;
57047;SDS011;42934;54.294;18.598;2023-11-18T05:05:33;10.68;;;6.38;;
57047;SDS011;42934;54.294;18.598;2023-11-18T05:08:04;11.75;;;7.53;;
57047;SDS011;42934;54.294;18.598;2023-11-18T05:10:35;12.70;;;7.20;;
57047;SDS011;42934;54.294;18.598;2023-11-18T05:13:05;12.10;;;7.15;;
57047;SDS011;42934;54.294;18.598;2023-11-18T05:15:34;11.55;;;7.30;;
57047;SDS011;42934;54.294;18.598;2023-11-18T05:18:04;11.07;;;6.97;;
57047;SDS011;42934;54.294;18.598;2023-11-18T05:20:40;9.13;;;6.72;;
57047;SDS011;42934;54.294;18.598;2023-11-18T05:25:39;10.55;;;6.15;;
57047;SDS011;42934;54.294;18.598;2023-11-18T05:28:10;10.05;;;6.70;;
57047;SDS011;42934;54.294;18.598;2023-11-18T05:30:41;9.73;;;6.20;;
57047;SDS011;42934;54.294;18.598;2023-11-18T05:33:10;11.07;;;6.35;;
57047;SDS011;42934;54.294;18.598;2023-11-18T05:35:46;10.35;;;6.28;;
57047;SDS011;42934;54.294;18.598;2023-11-18T05:38:16;11.80;;;6.47;;
57047;SDS011;42934;54.294;18.598;2023-11-18T05:40:49;12.57;;;6.47;;
57047;SDS011;42934;54.294;18.598;2023-11-18T05:43:23;13.55;;;7.60;;
57047;SDS011;42934;54.294;18.598;2023-11-18T05:45:56;13.95;;;7.40;;
57047;SDS011;42934;54.294;18.598;2023-11-18T05:48:39;13.23;;;7.75;;
57047;SDS011;42934;54.294;18.598;2023-11-18T05:51:12;10.75;;;6.95;;
57047;SDS011;42934;54.294;18.598;2023-11-18T05:53:41;10.80;;;6.45;;
57047;SDS011;42934;54.294;18.598;2023-11-18T05:56:13;13.73;;;7.00;;
57047;SDS011;42934;54.294;18.598;2023-11-18T05:58:44;11.23;;;7.07;;
57047;SDS011;42934;54.294;18.598;2023-11-18T06:01:14;11.63;;;7.03;;
57047;SDS011;42934;54.294;18.598;2023-11-18T06:03:45;11.80;;;7.28;;
57047;SDS011;42934;54.294;18.598;2023-11-18T06:06:16;12.88;;;7.38;;
57047;SDS011;42934;54.294;18.598;2023-11-18T06:08:50;11.82;;;7.05;;
57047;SDS011;42934;54.294;18.598;2023-11-18T06:11:20;11.00;;;6.93;;
57047;SDS011;42934;54.294;18.598;2023-11-18T06:13:50;11.20;;;6.97;;
57047;SDS011;42934;54.294;18.598;2023-11-18T06:18:51;10.05;;;5.90;;
57047;SDS011;42934;54.294;18.598;2023-11-18T06:21:23;9.57;;;6.18;;
57047;SDS011;42934;54.294;18.598;2023-11-18T06:23:55;10.35;;;6.43;;
57047;SDS011;42934;54.294;18.598;2023-11-18T06:28:55;12.20;;;6.17;;
57047;SDS011;42934;54.294;18.598;2023-11-18T06:31:26;12.20;;;6.43;;
57047;SDS011;42934;54.294;18.598;2023-11-18T06:33:56;8.40;;;5.65;;
57047;SDS011;42934;54.294;18.598;2023-11-18T06:36:26;10.52;;;6.95;;
57047;SDS011;42934;54.294;18.598;2023-11-18T06:38:57;12.55;;;7.03;;
57047;SDS011;42934;54.294;18.598;2023-11-18T06:41:27;12.60;;;7.68;;
57047;SDS011;42934;54.294;18.598;2023-11-18T06:44:01;14.07;;;8.02;;
57047;SDS011;42934;54.294;18.598;2023-11-18T06:46:36;11.18;;;7.57;;
57047;SDS011;42934;54.294;18.598;2023-11-18T06:49:07;11.93;;;7.28;;
57047;SDS011;42934;54.294;18.598;2023-11-18T06:51:43;13.02;;;8.10;;
57047;SDS011;42934;54.294;18.598;2023-11-18T06:54:12;12.10;;;7.38;;
57047;SDS011;42934;54.294;18.598;2023-11-18T06:56:42;10.85;;;7.00;;
57047;SDS011;42934;54.294;18.598;2023-11-18T07:01:43;11.90;;;6.97;;
57047;SDS011;42934;54.294;18.598;2023-11-18T07:04:13;11.23;;;7.45;;
57047;SDS011;42934;54.294;18.598;2023-11-18T07:06:44;10.90;;;7.30;;
57047;SDS011;42934;54.294;18.598;2023-11-18T07:09:13;11.20;;;6.72;;
57047;SDS011;42934;54.294;18.598;2023-11-18T07:11:45;29.65;;;12.02;;
57047;SDS011;42934;54.294;18.598;2023-11-18T07:14:15;28.80;;;12.63;;
57047;SDS011;42934;54.294;18.598;2023-11-18T07:16:45;24.88;;;11.90;;
57047;SDS011;42934;54.294;18.598;2023-11-18T07:19:14;14.57;;;8.40;;
57047;SDS011;42934;54.294;18.598;2023-11-18T07:21:49;13.90;;;8.73;;
57047;SDS011;42934;54.294;18.598;2023-11-18T07:24:19;16.42;;;8.63;;
57047;SDS011;42934;54.294;18.598;2023-11-18T07:26:48;17.13;;;7.83;;
57047;SDS011;42934;54.294;18.598;2023-11-18T07:29:18;12.27;;;8.30;;
57047;SDS011;42934;54.294;18.598;2023-11-18T07:31:50;13.88;;;8.10;;
57047;SDS011;42934;54.294;18.598;2023-11-18T07:34:21;10.35;;;7.00;;
57047;SDS011;42934;54.294;18.598;2023-11-18T07:36:54;11.73;;;7.65;;
57047;SDS011;42934;54.294;18.598;2023-11-18T07:39:23;24.48;;;10.63;;
57047;SDS011;42934;54.294;18.598;2023-11-18T07:42:11;23.70;;;10.35;;
57047;SDS011;42934;54.294;18.598;2023-11-18T07:44:40;15.57;;;9.38;;
57047;SDS011;42934;54.294;18.598;2023-11-18T07:47:09;18.67;;;9.93;;
57047;SDS011;42934;54.294;18.598;2023-11-18T07:49:39;23.43;;;10.77;;
57047;SDS011;42934;54.294;18.598;2023-11-18T07:52:10;23.58;;;10.77;;
57047;SDS011;42934;54.294;18.598;2023-11-18T07:57:08;18.20;;;9.70;;
57047;SDS011;42934;54.294;18.598;2023-11-18T07:59:38;17.35;;;8.82;;
57047;SDS011;42934;54.294;18.598;2023-11-18T08:02:07;26.35;;;11.02;;
57047;SDS011;42934;54.294;18.598;2023-11-18T08:07:09;23.15;;;10.95;;
57047;SDS011;42934;54.294;18.598;2023-11-18T08:09:38;25.17;;;11.68;;
57047;SDS011;42934;54.294;18.598;2023-11-18T08:12:09;18.52;;;10.40;;
57047;SDS011;42934;54.294;18.598;2023-11-18T08:14:38;27.33;;;10.98;;
57047;SDS011;42934;54.294;18.598;2023-11-18T08:17:07;25.63;;;12.55;;
57047;SDS011;42934;54.294;18.598;2023-11-18T08:19:36;20.83;;;11.18;;
57047;SDS011;42934;54.294;18.598;2023-11-18T08:22:06;19.20;;;10.60;;
57047;SDS011;42934;54.294;18.598;2023-11-18T08:24:37;19.73;;;10.98;;
57047;SDS011;42934;54.294;18.598;2023-11-18T08:27:05;29.98;;;13.77;;
57047;SDS011;42934;54.294;18.598;2023-11-18T08:29:34;38.35;;;15.48;;
57047;SDS011;42934;54.294;18.598;2023-11-18T08:32:06;39.30;;;15.27;;
57047;SDS011;42934;54.294;18.598;2023-11-18T08:34:36;42.97;;;16.63;;
57047;SDS011;42934;54.294;18.598;2023-11-18T08:37:05;30.93;;;14.23;;
57047;SDS011;42934;54.294;18.598;2023-11-18T08:39:37;35.65;;;15.32;;
57047;SDS011;42934;54.294;18.598;2023-11-18T08:42:07;30.98;;;13.90;;
57047;SDS011;42934;54.294;18.598;2023-11-18T08:44:36;29.25;;;12.95;;
57047;SDS011;42934;54.294;18.598;2023-11-18T08:47:05;28.63;;;14.23;;
57047;SDS011;42934;54.294;18.598;2023-11-18T08:49:35;24.30;;;12.07;;
57047;SDS011;42934;54.294;18.598;2023-11-18T08:52:05;25.90;;;13.07;;
57047;SDS011;42934;54.294;18.598;2023-11-18T08:54:38;28.80;;;13.50;;
57047;SDS011;42934;54.294;18.598;2023-11-18T08:57:27;27.05;;;13.40;;
57047;SDS011;42934;54.294;18.598;2023-11-18T09:00:15;21.80;;;11.95;;
57047;SDS011;42934;54.294;18.598;2023-11-18T09:03:06;16.80;;;10.23;;
57047;SDS011;42934;54.294;18.598;2023-11-18T09:05:35;20.10;;;10.70;;
57047;SDS011;42934;54.294;18.598;2023-11-18T09:08:05;18.25;;;10.32;;
57047;SDS011;42934;54.294;18.598;2023-11-18T09:10:35;20.33;;;12.70;;
57047;SDS011;42934;54.294;18.598;2023-11-18T09:13:05;19.83;;;11.38;;
57047;SDS011;42934;54.294;18.598;2023-11-18T09:15:34;20.40;;;11.45;;
57047;SDS011;42934;54.294;18.598;2023-11-18T09:18:04;19.25;;;11.18;;
57047;SDS011;42934;54.294;18.598;2023-11-18T09:20:36;19.27;;;9.75;;
57047;SDS011;42934;54.294;18.598;2023-11-18T09:23:06;20.40;;;10.90;;
57047;SDS011;42934;54.294;18.598;2023-11-18T09:25:37;19.73;;;10.90;;
57047;SDS011;42934;54.294;18.598;2023-11-18T09:28:07;20.40;;;11.05;;
57047;SDS011;42934;54.294;18.598;2023-11-18T09:30:41;23.55;;;11.35;;
57047;SDS011;42934;54.294;18.598;2023-11-18T09:33:17;21.10;;;12.10;;
57047;SDS011;42934;54.294;18.598;2023-11-18T09:35:55;20.17;;;11.45;;
57047;SDS011;42934;54.294;18.598;2023-11-18T09:38:27;21.98;;;13.02;;
57047;SDS011;42934;54.294;18.598;2023-11-18T09:40:58;24.50;;;13.48;;
57047;SDS011;42934;54.294;18.598;2023-11-18T09:43:30;22.13;;;12.32;;
57047;SDS011;42934;54.294;18.598;2023-11-18T09:46:04;22.88;;;12.73;;
57047;SDS011;42934;54.294;18.598;2023-11-18T09:48:41;23.80;;;12.75;;
57047;SDS011;42934;54.294;18.598;2023-11-18T09:51:19;22.95;;;12.90;;
57047;SDS011;42934;54.294;18.598;2023-11-18T09:53:50;17.42;;;10.82;;
57047;SDS011;42934;54.294;18.598;2023-11-18T09:56:30;17.45;;;10.02;;
57047;SDS011;42934;54.294;18.598;2023-11-18T09:59:10;21.25;;;11.75;;
57047;SDS011;42934;54.294;18.598;2023-11-18T10:01:43;19.52;;;11.80;;
57047;SDS011;42934;54.294;18.598;2023-11-18T10:04:21;14.68;;;9.00;;
57047;SDS011;42934;54.294;18.598;2023-11-18T10:06:54;13.93;;;8.13;;
57047;SDS011;42934;54.294;18.598;2023-11-18T10:09:24;13.68;;;7.72;;
57047;SDS011;42934;54.294;18.598;2023-11-18T10:11:57;15.47;;;9.13;;
57047;SDS011;42934;54.294;18.598;2023-11-18T10:14:32;16.92;;;9.55;;
57047;SDS011;42934;54.294;18.598;2023-11-18T10:17:04;14.67;;;9.10;;
57047;SDS011;42934;54.294;18.598;2023-11-18T10:19:51;15.10;;;9.57;;
57047;SDS011;42934;54.294;18.598;2023-11-18T10:22:23;16.95;;;9.98;;
57047;SDS011;42934;54.294;18.598;2023-11-18T10:24:53;15.95;;;8.98;;
57047;SDS011;42934;54.294;18.598;2023-11-18T10:27:25;17.88;;;9.45;;
57047;SDS011;42934;54.294;18.598;2023-11-18T10:29:55;15.90;;;9.23;;
57047;SDS011;42934;54.294;18.598;2023-11-18T10:32:25;17.52;;;9.40;;
57047;SDS011;42934;54.294;18.598;2023-11-18T10:34:56;17.73;;;11.35;;
57047;SDS011;42934;54.294;18.598;2023-11-18T10:37:26;13.00;;;8.10;;
57047;SDS011;42934;54.294;18.598;2023-11-18T10:40:03;13.18;;;8.18;;
57047;SDS011;42934;54.294;18.598;2023-11-18T10:42:34;13.57;;;7.93;;
57047;SDS011;42934;54.294;18.598;2023-11-18T10:45:04;11.90;;;7.60;;
57047;SDS011;42934;54.294;18.598;2023-11-18T10:47:34;13.82;;;7.00;;
57047;SDS011;42934;54.294;18.598;2023-11-18T10:50:06;15.80;;;8.30;;
57047;SDS011;42934;54.294;18.598;2023-11-18T10:52:37;11.60;;;7.28;;
57047;SDS011;42934;54.294;18.598;2023-11-18T10:55:08;12.30;;;7.03;;
57047;SDS011;42934;54.294;18.598;2023-11-18T10:57:41;15.07;;;8.77;;
57047;SDS011;42934;54.294;18.598;2023-11-18T11:00:11;16.55;;;8.40;;
57047;SDS011;42934;54.294;18.598;2023-11-18T11:02:42;19.20;;;9.05;;
57047;SDS011;42934;54.294;18.598;2023-11-18T11:05:11;12.60;;;6.93;;
57047;SDS011;42934;54.294;18.598;2023-11-18T11:08:00;11.90;;;6.85;;
57047;SDS011;42934;54.294;18.598;2023-11-18T11:10:32;11.77;;;6.90;;
57047;SDS011;42934;54.294;18.598;2023-11-18T11:13:04;10.68;;;6.47;;
57047;SDS011;42934;54.294;18.598;2023-11-18T11:15:36;12.18;;;6.85;;
57047;SDS011;42934;54.294;18.598;2023-11-18T11:18:23;12.35;;;6.35;;
57047;SDS011;42934;54.294;18.598;2023-11-18T11:20:57;10.98;;;6.13;;
57047;SDS011;42934;54.294;18.598;2023-11-18T11:23:38;12.65;;;6.60;;
57047;SDS011;42934;54.294;18.598;2023-11-18T11:26:26;11.20;;;5.97;;
57047;SDS011;42934;54.294;18.598;2023-11-18T11:29:11;9.73;;;6.43;;
57047;SDS011;42934;54.294;18.598;2023-11-18T11:31:51;10.35;;;6.35;;
57047;SDS011;42934;54.294;18.598;2023-11-18T11:37:01;12.40;;;6.53;;
57047;SDS011;42934;54.294;18.598;2023-11-18T11:39:33;16.50;;;6.70;;
57047;SDS011;42934;54.294;18.598;2023-11-18T11:42:05;11.25;;;6.95;;
57047;SDS011;42934;54.294;18.598;2023-11-18T11:44:37;11.48;;;7.53;;
57047;SDS011;42934;54.294;18.598;2023-11-18T11:47:09;14.85;;;7.63;;
57047;SDS011;42934;54.294;18.598;2023-11-18T11:49:44;11.70;;;7.20;;
57047;SDS011;42934;54.294;18.598;2023-11-18T11:52:27;11.85;;;6.63;;
57047;SDS011;42934;54.294;18.598;2023-11-18T11:55:00;14.57;;;8.18;;
57047;SDS011;42934;54.294;18.598;2023-11-18T11:57:39;11.50;;;7.30;;
57047;SDS011;42934;54.294;18.598;2023-11-18T12:00:13;12.07;;;7.25;;
57047;SDS011;42934;54.294;18.598;2023-11-18T12:02:50;13.15;;;7.43;;
57047;SDS011;42934;54.294;18.598;2023-11-18T12:05:23;14.05;;;8.65;;
57047;SDS011;42934;54.294;18.598;2023-11-18T12:07:55;16.33;;;9.30;;
57047;SDS011;42934;54.294;18.598;2023-11-18T12:10:26;16.55;;;9.82;;
57047;SDS011;42934;54.294;18.598;2023-11-18T12:13:07;16.67;;;9.70;;
57047;SDS011;42934;54.294;18.598;2023-11-18T12:15:52;16.58;;;10.52;;
57047;SDS011;42934;54.294;18.598;2023-11-18T12:18:24;16.25;;;10.15;;
57047;SDS011;42934;54.294;18.598;2023-11-18T12:20:54;16.33;;;10.50;;
57047;SDS011;42934;54.294;18.598;2023-11-18T12:23:24;24.90;;;11.73;;
57047;SDS011;42934;54.294;18.598;2023-11-18T12:25:55;22.35;;;11.77;;
57047;SDS011;42934;54.294;18.598;2023-11-18T12:28:26;20.33;;;11.52;;
57047;SDS011;42934;54.294;18.598;2023-11-18T12:30:59;27.77;;;14.85;;
57047;SDS011;42934;54.294;18.598;2023-11-18T12:34:00;25.80;;;13.65;;
57047;SDS011;42934;54.294;18.598;2023-11-18T12:39:48;25.42;;;13.13;;
57047;SDS011;42934;54.294;18.598;2023-11-18T12:42:58;20.52;;;10.65;;
57047;SDS011;42934;54.294;18.598;2023-11-18T12:45:42;16.40;;;9.52;;
57047;SDS011;42934;54.294;18.598;2023-11-18T12:48:36;19.93;;;10.83;;
57047;SDS011;42934;54.294;18.598;2023-11-18T12:51:13;34.72;;;17.88;;
57047;SDS011;42934;54.294;18.598;2023-11-18T12:53:47;24.13;;;13.73;;
57047;SDS011;42934;54.294;18.598;2023-11-18T12:56:20;21.20;;;11.88;;
57047;SDS011;42934;54.294;18.598;2023-11-18T12:58:51;24.45;;;14.55;;
57047;SDS011;42934;54.294;18.598;2023-11-18T13:01:22;16.80;;;10.02;;
57047;SDS011;42934;54.294;18.598;2023-11-18T13:03:55;17.45;;;10.38;;
57047;SDS011;42934;54.294;18.598;2023-11-18T13:06:29;15.98;;;8.73;;
57047;SDS011;42934;54.294;18.598;2023-11-18T13:08:58;15.87;;;8.50;;
57047;SDS011;42934;54.294;18.598;2023-11-18T13:11:33;17.58;;;9.40;;
57047;SDS011;42934;54.294;18.598;2023-11-18T13:14:05;17.38;;;9.65;;
57047;SDS011;42934;54.294;18.598;2023-11-18T13:16:36;20.75;;;10.80;;
57047;SDS011;42934;54.294;18.598;2023-11-18T13:19:10;23.33;;;14.95;;
57047;SDS011;42934;54.294;18.598;2023-11-18T13:21:39;20.80;;;10.95;;
57047;SDS011;42934;54.294;18.598;2023-11-18T13:24:10;15.95;;;10.60;;
57047;SDS011;42934;54.294;18.598;2023-11-18T13:26:40;19.42;;;11.18;;
57047;SDS011;42934;54.294;18.598;2023-11-18T13:29:10;21.10;;;12.13;;
57047;SDS011;42934;54.294;18.598;2023-11-18T13:31:39;19.60;;;10.75;;
57047;SDS011;42934;54.294;18.598;2023-11-18T13:34:11;19.25;;;10.05;;
57047;SDS011;42934;54.294;18.598;2023-11-18T13:36:44;31.35;;;15.80;;
57047;SDS011;42934;54.294;18.598;2023-11-18T13:39:17;23.58;;;11.93;;
57047;SDS011;42934;54.294;18.598;2023-11-18T13:41:48;24.88;;;12.25;;
57047;SDS011;42934;54.294;18.598;2023-11-18T13:44:32;32.17;;;15.07;;
57047;SDS011;42934;54.294;18.598;2023-11-18T13:47:06;32.10;;;13.90;;
57047;SDS011;42934;54.294;18.598;2023-11-18T13:49:40;28.55;;;13.25;;
57047;SDS011;42934;54.294;18.598;2023-11-18T13:52:12;17.77;;;10.35;;
57047;SDS011;42934;54.294;18.598;2023-11-18T13:54:43;19.77;;;10.50;;
57047;SDS011;42934;54.294;18.598;2023-11-18T13:57:15;14.10;;;9.10;;
57047;SDS011;42934;54.294;18.598;2023-11-18T13:59:45;16.40;;;9.43;;
57047;SDS011;42934;54.294;18.598;2023-11-18T14:02:15;16.55;;;10.15;;
57047;SDS011;42934;54.294;18.598;2023-11-18T14:04:45;15.93;;;9.63;;
57047;SDS011;42934;54.294;18.598;2023-11-18T14:07:15;15.45;;;9.48;;
57047;SDS011;42934;54.294;18.598;2023-11-18T14:09:44;17.20;;;9.45;;
57047;SDS011;42934;54.294;18.598;2023-11-18T14:12:14;17.70;;;9.55;;
57047;SDS011;42934;54.294;18.598;2023-11-18T14:14:44;17.10;;;10.13;;
57047;SDS011;42934;54.294;18.598;2023-11-18T14:17:13;18.33;;;10.13;;
57047;SDS011;42934;54.294;18.598;2023-11-18T14:19:43;17.10;;;10.38;;
57047;SDS011;42934;54.294;18.598;2023-11-18T14:22:14;19.85;;;10.32;;
57047;SDS011;42934;54.294;18.598;2023-11-18T14:24:43;16.70;;;9.93;;
57047;SDS011;42934;54.294;18.598;2023-11-18T14:30:56;17.38;;;9.98;;
57047;SDS011;42934;54.294;18.598;2023-11-18T14:33:26;19.92;;;11.13;;
57047;SDS011;42934;54.294;18.598;2023-11-18T14:35:57;21.33;;;11.35;;
57047;SDS011;42934;54.294;18.598;2023-11-18T14:38:28;21.20;;;11.90;;
57047;SDS011;42934;54.294;18.598;2023-11-18T14:40:57;23.83;;;13.30;;
57047;SDS011;42934;54.294;18.598;2023-11-18T14:43:26;25.77;;;12.90;;
57047;SDS011;42934;54.294;18.598;2023-11-18T14:45:56;26.33;;;15.10;;
57047;SDS011;42934;54.294;18.598;2023-11-18T14:48:26;29.67;;;15.77;;
57047;SDS011;42934;54.294;18.598;2023-11-18T14:50:57;34.70;;;17.67;;
57047;SDS011;42934;54.294;18.598;2023-11-18T14:53:27;37.33;;;18.90;;
57047;SDS011;42934;54.294;18.598;2023-11-18T14:55:56;31.30;;;17.10;;
57047;SDS011;42934;54.294;18.598;2023-11-18T14:58:26;33.55;;;17.30;;
57047;SDS011;42934;54.294;18.598;2023-11-18T15:00:55;33.38;;;18.20;;
57047;SDS011;42934;54.294;18.598;2023-11-18T15:03:25;38.30;;;19.70;;
57047;SDS011;42934;54.294;18.598;2023-11-18T15:05:54;33.00;;;18.08;;
57047;SDS011;42934;54.294;18.598;2023-11-18T15:08:25;35.75;;;19.58;;
57047;SDS011;42934;54.294;18.598;2023-11-18T15:10:55;36.53;;;21.03;;
57047;SDS011;42934;54.294;18.598;2023-11-18T15:13:25;38.03;;;19.67;;
57047;SDS011;42934;54.294;18.598;2023-11-18T15:15:54;32.83;;;19.10;;